x

8413320 - Bar Harbor, Me (atgm1) Weather Station

1:54 - Sun 28th Dec 2014 All times are EST. -5 hours from GMT.

  • Wind
    3mph, 8mph gusts
  • Sea Temp 44°f
  • Air Temp 44°f
  • Sea Pressure 1012mb
  • 8413320 - Bar Harbor, Me
  • 8413320 - Bar Harbor, Me

More Historic Weather Station data

Upgrade to MSW Pro to gain access to the past 30 days of data for over 8000 Wavebouys and Weather Stations around the globe.

Join Pro

Comparision Forecast

View Surf forecast
   
dim. 12/28 1:54 3 8 mph 1012mb 44f 44f
1:48 7 9 mph 1012.2mb 44f 44f
1:42 6 9 mph 1011.9mb 44f 44f
1:36 9 14 mph 1011.9mb 44f 44f
1:30 8 9 mph 1012mb 44f 44f
1:24 3 9 mph 1012.2mb 44f 44f
1:18 5 7 mph 1012.3mb 44f 44f
1:12 3 9 mph 1012.6mb 44f 44f
1:06 3 6 mph 1012.6mb 44f 44f
1:00 5 7 mph 1012.9mb 44f 44f
12:54 3 7 mph 1013mb 44f 43f
12:48 5 7 mph 1013.2mb 44f 44f
12:42 5 9 mph 1013.3mb 44f 44f
12:36 9 17 mph 1013.4mb 44f 44f
12:30 8 14 mph 1013.5mb 44f 44f
12:24 5 13 mph 1013.9mb 44f 43f
12:18 5 7 mph 1014.1mb 44f 43f
12:12  -  3 mph 1014.1mb 44f 42f
12:06  -  3 mph 1014.3mb 44f 41f
12:00 2 5 mph 1014.3mb 44f 42f
sam. 12/27 11:54 3 5 mph 1014mb 44f 41f
11:48  -  mph - - 39f
11:42  -  mph - - 41f
11:36  -  mph - - 41f
11:30 5 7 mph 1014.4mb 43f 41f
11:24 3 5 mph 1014.5mb 44f 41f
11:18 2 7 mph 1014.7mb 44f 42f
11:12 3 6 mph 1014.9mb 44f 42f
11:06 5 8 mph 1015.1mb 43f 41f
11:00 2 3 mph 1015.6mb 43f 39f
10:54  -  2 mph 1016mb 43f 39f
10:48  -  1 mph 1016.2mb 43f 38f
10:42  -  2 mph 1016.5mb 43f 38f
10:36  -  1 mph 1016.7mb 43f 38f
10:30  -  1 mph 1016.8mb 43f 39f
10:24 2 3 mph 1016.8mb 43f 41f
10:18 2 5 mph 1017mb 43f 41f
10:12 3 6 mph 1017.1mb 43f 40f
10:06 5 6 mph 1017mb 43f 39f
9:54 7 8 mph 1017mb 43f 39f
9:48 7 9 mph 1017.1mb 43f 39f
9:42 8 9 mph 1017.2mb 43f 39f
9:36 2 3 mph 1017.4mb 43f 39f
9:30  -  2 mph 1017.4mb 43f 39f
9:24  -  3 mph 1017.7mb 43f 40f
9:18 1 5 mph 1017.7mb 43f 41f
9:12 2 6 mph 1017.9mb 43f 42f
9:06 5 6 mph 1018.1mb 43f 42f
9:00 6 7 mph 1018.2mb 43f 42f
8:54 7 8 mph 1018.2mb 43f 42f
8:48 6 8 mph 1018.3mb 43f 42f
8:42 6 8 mph 1018.1mb 43f 42f
8:36 6 8 mph 1018.2mb 43f 41f
8:30 7 9 mph 1018.3mb 43f 41f
8:24 8 9 mph 1018.4mb 43f 41f
8:18 7 8 mph 1018.5mb 43f 41f
8:12 7 8 mph 1018.5mb 43f 41f
8:00 5 7 mph 1018.5mb 43f 41f
7:54 6 9 mph 1018.5mb 43f 42f
7:48 7 9 mph 1018.7mb 43f 42f
7:42 7 8 mph 1018.7mb 43f 42f
7:36 7 9 mph 1018.6mb 43f 42f
7:30 8 11 mph 1018.6mb 43f 41f
7:24 9 10 mph 1018.7mb 43f 41f
7:18 7 8 mph 1018.8mb 43f 42f
7:12 6 8 mph 1018.6mb 43f 42f
7:06 7 9 mph 1018.6mb 43f 42f
7:00 7 8 mph 1018.5mb 43f 42f
6:54 6 7 mph 1018.5mb 43f 42f
6:48 2 5 mph 1018.4mb 43f 40f
6:42 5
mph
1018.2mb 43f 41f
6:36 2 3 mph 1018.1mb 43f 41f
6:30 2 3 mph 1018.3mb 43f 41f
6:24 1 6 mph 1018.4mb 43f 42f
6:18 6 7 mph 1018.4mb 43f 42f
6:12 6 8 mph 1018.6mb 43f 42f
6:06 6 7 mph 1018.5mb 43f 42f
6:00 6 7 mph 1018.8mb 43f 42f
5:54 5 8 mph 1018.7mb 43f 42f
5:48 6 8 mph 1018.7mb 43f 41f
5:42 6 7 mph 1018.5mb 43f 42f
5:36 6 9 mph 1018.5mb 43f 42f
5:30 5 7 mph 1018.5mb 43f 42f
5:24 3 5 mph 1018.6mb 43f 42f
5:18 2 5 mph 1018.5mb 43f 42f
5:06 5 6 mph 1018.8mb 43f 43f
4:54 3 5 mph 1018.5mb 43f 43f
4:48 5 8 mph 1018.5mb 43f 44f
4:42 5 6 mph 1018.7mb 43f 44f
4:36 3 7 mph 1018.6mb 43f 44f
4:30 6 7 mph 1018.6mb 43f 44f
4:24 3 6 mph 1018.6mb 43f 44f
4:18 3 6 mph 1018.6mb 43f 44f
4:12 6 7 mph 1018.5mb 43f 44f
4:06 6 8 mph 1018.6mb 43f 45f
4:00 6 13 mph 1018.6mb 43f 45f
3:54 9 11 mph 1018.5mb 43f 45f
3:48 7 10 mph 1018.5mb 43f 45f
3:42 6 13 mph 1018.6mb 43f 45f
3:36 9 17 mph 1018.3mb 43f 46f
3:30 9 13 mph 1018.2mb 43f 46f
3:24 7 9 mph 1018.2mb 43f 46f
3:18 5 9 mph 1018.1mb 43f 46f
3:12 8 13 mph 1017.9mb 43f 46f
3:06 6 14 mph 1017.9mb 43f 46f
3:00 7 14 mph 1018.1mb 43f 46f
2:54 10 15 mph 1018.3mb 44f 46f
2:48 10 14 mph 1018.2mb 44f 46f
2:42 8 14 mph 1018.2mb 44f 46f
2:36 8 15 mph 1018.2mb 43f 46f
2:30 8 17 mph 1018mb 43f 46f
2:24 10 16 mph 1018mb 43f 46f
2:18 10 16 mph 1018mb 43f 46f
2:12 9 15 mph 1017.8mb 43f 46f
2:06 13 15 mph 1018mb 43f 46f
2:00 11 16 mph 1018.1mb 44f 46f
1:54 13 16 mph 1018mb 44f 46f
1:48 11 17 mph 1018mb 44f 46f
1:42 9 16 mph 1017.8mb 44f 46f
1:36 10 14 mph 1017.9mb 44f 46f
1:30 10 15 mph 1018.1mb 44f 46f
1:24 10 14 mph 1018.2mb 44f 45f
1:18 14 17 mph 1018.1mb 43f 45f
1:12 16 17 mph 1018.1mb 43f 45f
1:06 14 18 mph 1018.2mb 43f 45f
1:00 17 18 mph 1018.4mb 44f 45f
12:54 17 23 mph 1018.4mb 44f 45f
12:48 18 26 mph 1018.4mb 44f 45f
12:42 23 28 mph 1018.4mb 44f 45f
12:36 22 28 mph 1018.3mb 43f 45f
12:30 17 23 mph 1018.3mb 43f 45f
12:24 15 20 mph 1018.3mb 43f 45f
12:18 16 21 mph 1018.4mb 43f 45f
12:12 17 21 mph 1018.4mb 43f 45f
12:06 15 20 mph 1018.5mb 43f 45f
12:00 14 18 mph 1018.5mb 43f 45f
11:54 17 22 mph 1018.6mb 43f 44f
11:48 21 26 mph 1018.6mb 43f 44f
11:42 18 23 mph 1018.6mb 43f 45f
11:36 18 23 mph 1018.7mb 43f 45f
11:30 18 23 mph 1018.7mb 43f 45f
11:24 14 22 mph 1019mb 43f 45f
11:18 17 23 mph 1019.1mb 43f 45f
11:12 15 24 mph 1019.1mb 43f 45f
11:06 17 22 mph 1019.1mb 43f 45f
11:00 14 16 mph 1019.2mb 43f 45f
10:54 14 17 mph 1019.3mb 43f 44f
10:48 14 21 mph 1019.4mb 43f 44f
10:42 13 17 mph 1019.5mb 43f 44f
10:36 11 17 mph 1019.7mb 43f 44f
10:30 11 17 mph 1019.8mb 43f 44f
10:24 13 18 mph 1019.9mb 43f 44f
10:18 13 21 mph 1019.9mb 43f 44f
10:12 14 22 mph 1019.9mb 43f 44f
10:06 14 20 mph 1019.9mb 43f 44f
10:00 11 17 mph 1020mb 43f 44f
9:54 11 17 mph 1020mb 43f 43f
9:48 13 22 mph 1020mb 43f 43f
9:42 13 17 mph 1020mb 43f 43f
9:36 10 15 mph 1020.1mb 43f 43f
9:30 9 15 mph 1020mb 43f 43f
9:24 10 16 mph 1020mb 43f 42f
9:18 11 18 mph 1019.8mb 43f 42f
9:12 11 17 mph 1019.7mb 43f 42f
9:06 13 18 mph 1019.7mb 43f 42f
9:00 13 17 mph 1019.7mb 43f 42f
8:54 9 15 mph 1019.7mb 43f 41f
8:48 10 15 mph 1019.6mb 43f 41f
8:42 9 15 mph 1019.6mb 43f 41f
8:36 9 15 mph 1019.5mb 43f 41f
8:30 9 14 mph 1019.3mb 43f 40f
8:24 11 15 mph 1019.2mb 43f 40f
8:18 13 17 mph 1019.2mb 43f 40f
8:12 11 17 mph 1019.1mb 43f 40f
8:06 10 16 mph 1019.1mb 43f 40f
8:00 10 15 mph 1019mb 43f 40f
7:54 10 16 mph 1019mb 43f 39f
7:48 9 14 mph 1018.9mb 43f 39f
7:42 10 15 mph 1018.8mb 43f 39f
7:36 10 14 mph 1018.7mb 43f 39f
7:30 10 14 mph 1018.6mb 43f 39f
7:24 9 15 mph 1018.5mb 43f 39f
7:18 8 14 mph 1018.4mb 43f 40f
7:12 9 14 mph 1018.4mb 43f 39f
7:06 10 15 mph 1018.3mb 43f 39f
7:00 10 16 mph 1018.3mb 43f 39f
6:54 10 16 mph 1018.2mb 43f 39f
6:48 11 16 mph 1018.2mb 43f 39f
6:42 13 16 mph 1018.1mb 43f 39f
6:36 11 18 mph 1018.1mb 43f 39f
6:30 13 16 mph 1018mb 43f 39f
6:24 10 15 mph 1017.9mb 43f 39f
6:18 11 14 mph 1017.9mb 43f 39f
6:12 10 16 mph 1017.8mb 43f 40f
6:06 9 13 mph 1017.8mb 43f 40f
6:00 9 15 mph 1017.8mb 43f 40f
5:54 10 15 mph 1017.6mb 43f 39f
5:48 8 15 mph 1017.6mb 43f 39f
5:42 9 14 mph 1017.5mb 43f 39f
5:36 9 14 mph 1017.4mb 43f 39f
5:30 8 13 mph 1017.4mb 43f 40f
5:24 9 14 mph 1017.3mb 43f 40f
5:18 10 13 mph 1017.3mb 43f 40f
5:12 9 14 mph 1017.3mb 43f 40f
5:06 7 13 mph 1017.3mb 43f 41f
5:00 10 14 mph 1017.3mb 43f 41f
4:54 8 11 mph 1017.3mb 42f 41f
4:48 9 15 mph 1017.3mb 43f 41f
4:42 9 14 mph 1017.2mb 43f 40f
4:36 8 15 mph 1017.2mb 43f 40f
4:30 13 17 mph 1017.2mb 43f 40f
4:24 13 17 mph 1017.1mb 43f 40f
4:18 9 14 mph 1017.1mb 43f 39f
4:12 9 15 mph 1017.2mb 43f 39f
4:06 9 14 mph 1017.3mb 43f 39f
4:00 8 13 mph 1017.2mb 43f 39f
3:54 8 14 mph 1017.2mb 43f 39f
3:48 9 15 mph 1017.2mb 43f 39f
3:42 11 16 mph 1017.2mb 43f 40f
3:36 13 15 mph 1017.1mb 43f 40f
3:30 11 16 mph 1017.3mb 43f 40f
3:24 11 16 mph 1017.2mb 43f 40f
3:18 13 16 mph 1017.2mb 43f 40f
3:12 10 15 mph 1017.2mb 43f 40f
3:06 9 15 mph 1017.2mb 43f 39f
3:00 9 15 mph 1017.2mb 42f 39f
2:54 8 13 mph 1017.2mb 42f 39f
2:48 10 14 mph 1017.3mb 42f 39f
2:42 9 14 mph 1017.3mb 42f 39f
2:36 10 13 mph 1017.2mb 42f 39f
2:30 9 13 mph 1017.2mb 43f 39f
2:24 10 14 mph 1017.2mb 43f 39f
2:18 10 13 mph 1017.2mb 43f 39f
2:12 10 13 mph 1017.1mb 43f 39f
2:06 7 11 mph 1017.1mb 43f 39f
2:00 7 11 mph 1017.2mb 43f 38f
1:54 8 11 mph 1017.2mb 43f 39f
1:48 8 13 mph 1017.2mb 43f 39f
1:42 7 10 mph 1017.2mb 43f 39f
1:36 7 13 mph 1017mb 43f 39f
1:30 7 14 mph 1017mb 43f 39f
1:24 11 16 mph 1017mb 43f 39f
1:18 9 14 mph 1017.3mb 43f 39f
1:12 7 10 mph 1017mb 43f 39f
1:06 7 11 mph 1017mb 43f 39f
1:00 7 9 mph 1017mb 43f 39f
12:54 8 11 mph 1016.8mb 43f 39f
12:48 7 11 mph 1016.7mb 43f 39f
12:42 7 11 mph 1016.8mb 43f 39f
12:36 8 11 mph 1016.7mb 43f 39f
12:30 6 11 mph 1016.9mb 43f 39f
12:24 8 13 mph 1017.1mb 43f 39f
12:18 8 11 mph 1017.2mb 43f 39f
12:12 9 13 mph 1017.1mb 43f 39f
12:06 7 13 mph 1017.1mb 44f 39f
12:00 10 15 mph 1017mb 44f 39f
ven. 12/26 11:54 7 13 mph 1017.1mb 44f 39f
11:48 9 13 mph 1017.3mb 43f 39f
11:42 8 13 mph 1017.5mb 43f 40f
11:36 9 15 mph 1017.4mb 43f 40f
11:30 10 15 mph 1017.3mb 43f 40f
11:24 11 15 mph 1017.4mb 43f 40f
11:18 11 14 mph 1017.5mb 43f 40f
11:12 10 14 mph 1017.5mb 43f 40f
11:06 10 14 mph 1017.6mb 43f 40f
11:00 8 14 mph 1017.6mb 43f 40f
10:54 10 14 mph 1017.6mb 43f 40f
10:48 7 11 mph 1017.6mb 43f 40f
10:42 9 14 mph 1017.7mb 43f 40f
10:36 7 14 mph 1017.6mb 43f 40f
10:30 7 10 mph 1017.6mb 43f 40f
10:24 7 13 mph 1017.6mb 43f 40f
10:18 11 14 mph 1017.5mb 43f 40f
10:12 8 13 mph 1017.5mb 43f 40f
10:06 8 14 mph 1017.6mb 43f 40f
10:00 13 14 mph 1017.4mb 43f 40f
9:54 13 15 mph 1017.4mb 43f 40f
9:48 11 15 mph 1017.5mb 43f 40f
9:42 11 16 mph 1017.5mb 43f 41f
9:36 11 17 mph 1017.5mb 43f 41f
9:30 10 15 mph 1017.4mb 43f 41f
9:24 11 17 mph 1017.4mb 43f 41f
9:18 14 17 mph 1017.6mb 43f 41f
9:12 10 15 mph 1017.6mb 43f 41f
9:06 10 17 mph 1017.5mb 43f 41f
9:00 7 14 mph 1017.3mb 43f 41f
8:54 9 15 mph 1017.2mb 43f 41f
8:48 11 15 mph - 43f 41f
8:42 8 15 mph - 43f 41f
8:36 10 18 mph - 43f 41f
8:30 9 15 mph 1017.2mb 43f 41f
8:24 8 17 mph 1017.2mb 43f 42f
8:18 11 17 mph 1017.3mb 43f 42f
8:12 8 13 mph 1017.3mb 43f 41f
8:06 8 15 mph 1017.2mb 43f 41f
8:00 10 18 mph 1017.1mb 43f 41f
7:54 11 16 mph 1017.1mb 43f 41f
7:48 11 15 mph 1017mb 43f 42f
7:42 8 14 mph 1017mb 43f 41f
7:36 7 11 mph 1017mb 43f 41f
7:24 7 11 mph 1016.7mb 43f 41f
7:18 9 13 mph 1016.9mb 43f 42f
7:12 7 10 mph 1017mb 43f 42f
7:06 6 9 mph 1016.9mb 43f 42f
7:00 5 10 mph 1016.7mb 43f 42f
6:54 6 9 mph 1016.6mb 43f 42f
6:48 6 11 mph 1016.6mb 43f 42f
6:42 5 9 mph 1016.6mb 43f 42f
6:36 6 8 mph 1016.6mb 43f 42f
6:30 6 11 mph 1016.6mb 43f 42f
6:24 6 8 mph 1016.8mb 43f 42f
6:18 5 8 mph 1016.7mb 43f 43f
6:12 3 7 mph 1016.6mb 43f 43f
6:06 6 8 mph 1016.6mb 43f 43f
6:00 6 9 mph 1016.7mb 43f 43f
5:54 8 13 mph 1016.7mb 43f 43f
5:48 7 10 mph 1016.5mb 43f 43f
5:42 9 14 mph 1016.6mb 43f 43f
5:36 8 11 mph 1016.5mb 43f 43f
5:30 10 14 mph 1016.5mb 43f 43f
5:24 13 16 mph 1016.4mb 43f 43f
5:18 13 16 mph 1016.4mb 43f 43f
5:12 14 16 mph 1016.5mb 43f 43f
5:06 10 13 mph 1016.7mb 43f 44f
5:00 8 10 mph 1016.7mb 43f 43f
4:54 8 13 mph 1016.5mb 43f 44f
4:48 10 15 mph 1016.4mb 43f 44f
4:42 11 21 mph 1016.3mb 43f 44f
4:36 11 18 mph 1016.3mb 43f 44f
4:30 11 17 mph 1016.2mb 43f 44f
4:24 14 20 mph 1016.1mb 43f 44f
4:18 10 17 mph 1016.1mb 43f 44f
4:12 14 18 mph 1016.1mb 43f 44f
4:00 14 21 mph 1016mb 43f 45f
3:54 14 21 mph 1016mb 43f 45f
3:48  -  mph 1016mb 43f 45f
3:42  -  mph 1015.9mb 43f 45f
3:36  -  mph 1015.7mb 43f 45f
3:30 13 18 mph 1015.7mb 43f 46f
3:24 13 21 mph 1015.6mb 43f 46f
3:18 15 20 mph 1015.5mb 43f 46f
3:06 16 23 mph 1015.3mb 43f 46f
3:00 10 20 mph 1015.3mb 43f 46f
2:54 16 22 mph 1015.2mb 43f 46f
2:48 14 22 mph 1015.1mb 43f 46f
2:42 14 22 mph 1015.2mb 43f 46f
2:36 16 22 mph 1015.2mb 43f 46f
2:30 13 23 mph 1015.2mb 43f 46f
2:24 14 21 mph 1015.1mb 44f 47f
2:18 14 22 mph 1015.1mb 44f 47f
2:12 13 21 mph 1015mb 44f 46f
2:06 11 20 mph 1014.9mb 44f 47f
2:00 13 20 mph 1014.8mb 44f 46f
1:54 13 17 mph 1014.8mb 44f 47f
1:48 7 18 mph 1014.7mb 44f 47f
1:42 13 20 mph 1014.7mb 44f 47f
1:36 13 16 mph 1014.6mb 44f 47f
1:30 14 18 mph 1014.6mb 44f 47f
1:24 13 16 mph 1014.6mb 44f 46f
1:18 10 18 mph 1014.6mb 44f 47f
1:12 14 22 mph 1014.6mb 44f 46f
1:06 13 20 mph 1014.6mb 44f 46f
1:00 11 20 mph 1014.7mb 44f 46f
12:54 14 20 mph 1014.7mb 44f 46f
12:48 15 23 mph 1014.5mb 44f 46f
12:42 18 26 mph 1014.5mb 44f 46f
12:36 16 22 mph 1014.4mb 44f 46f
12:30 14 23 mph 1014.3mb 44f 46f
12:24 15 22 mph 1014.3mb 44f 46f
12:18 16 29 mph 1014.4mb 44f 46f
12:12 22 29 mph 1014.4mb 44f 46f
12:06 22 28 mph 1014.5mb 44f 46f
12:00 20 28 mph 1014.5mb 44f 46f
11:54 14 25 mph 1014.5mb 44f 46f
11:48 13 21 mph 1014.5mb 44f 46f
11:42 14 25 mph 1014.5mb 44f 46f
11:36 21 25 mph 1014.5mb 44f 45f
11:30 20 23 mph 1014.5mb 44f 45f
11:24 14 22 mph 1014.6mb 44f 45f
11:18 17 29 mph 1014.6mb 44f 45f
11:12 16 26 mph 1014.5mb 44f 45f
11:06 14 23 mph 1014.5mb 44f 45f
11:00 16 23 mph 1014.6mb 44f 45f
10:54 15 28 mph 1014.6mb 44f 45f
10:48 18 28 mph 1014.6mb 44f 44f
10:42 13 25 mph 1014.6mb 44f 45f
10:36 15 30 mph 1014.6mb 44f 44f
10:30 13 21 mph 1014.7mb 44f 44f
10:24 15 24 mph 1014.7mb 44f 44f
10:18 11 17 mph 1014.8mb 44f 44f
10:12 13 21 mph 1015.1mb 44f 44f
10:06 15 29 mph 1015mb 44f 44f
10:00 14 21 mph 1015.1mb 44f 44f
9:54 14 22 mph 1015.2mb 44f 44f
9:48 16 30 mph 1015.2mb 44f 44f
9:42 14 22 mph 1015.2mb 44f 44f
9:36 16 28 mph 1015.1mb 44f 44f
9:30 13 23 mph 1015mb 44f 44f
9:24 16 24 mph 1014.8mb 43f 44f
9:18 14 24 mph 1014.7mb 43f 43f
9:12 11 18 mph 1014.6mb 43f 43f
9:06 10 21 mph 1014.5mb 43f 43f
9:00 14 21 mph 1014.4mb 43f 43f
8:54 11 14 mph 1014.4mb 43f 43f
8:48 11 18 mph 1014.3mb 43f 42f
8:42 11 15 mph 1014.4mb 44f 42f
8:36 10 14 mph 1014.3mb 44f 42f
8:30 9 13 mph 1014.2mb 44f 42f
8:24 11 17 mph 1014.1mb 44f 41f
8:18 9 14 mph 1014.2mb 44f 41f
8:12 8 17 mph 1014.1mb 44f 41f
8:06 10 14 mph 1014.1mb 43f 41f
7:54 10 15 mph 1013.9mb 43f 41f
7:48 9 14 mph 1013.9mb 44f 41f
7:42 10 14 mph 1013.7mb 43f 41f
7:36 10 14 mph 1013.6mb 44f 40f
7:30 9 15 mph 1013.3mb 43f 40f
7:24 8 16 mph 1013.1mb 43f 40f
7:18 9 17 mph 1013.1mb 43f 40f
7:12 10 18 mph 1013mb 43f 40f
7:06 11 20 mph 1012.9mb 43f 40f
7:00 9 15 mph 1012.9mb 43f 40f
6:54 10 17 mph 1012.9mb 43f 40f
6:48 11 21 mph 1012.7mb 43f 40f
6:42 11 18 mph 1012.7mb 43f 40f
6:36 11 20 mph 1012.7mb 43f 40f
6:30 13 20 mph 1012.7mb 43f 40f
6:24 14 18 mph 1012.6mb 43f 40f
6:18 14 21 mph 1012.4mb 43f 40f
6:12 11 21 mph 1012.4mb 43f 40f
6:06 13 17 mph 1012.3mb 43f 40f
6:00 13 18 mph 1012.3mb 43f 40f
5:54 10 15 mph 1012.2mb 43f 40f
5:48 11 17 mph 1012mb 43f 40f
5:42 11 18 mph 1011.9mb 43f 40f
5:36 14 22 mph 1011.8mb 43f 41f
5:30 14 18 mph 1011.8mb 43f 41f
5:24 10 18 mph 1011.6mb 43f 41f
5:18 15 22 mph 1011.6mb 43f 41f
5:12 11 16 mph 1011.5mb 43f 41f
5:06 13 18 mph 1011.4mb 43f 41f
5:00 15 20 mph 1011.4mb 43f 42f
4:54 13 20 mph 1011.3mb 43f 41f
4:48 14 22 mph 1011.1mb 43f 41f
4:42 14 18 mph 1011mb 43f 42f
4:36 13 18 mph 1010.9mb 43f 42f
4:30 13 17 mph 1010.8mb 43f 42f
4:24 10 20 mph 1010.8mb 43f 41f
4:18 14 22 mph 1010.8mb 43f 41f
4:12 10 17 mph 1010.7mb 43f 41f
4:06 14 22 mph 1010.6mb 43f 42f
4:00 13 18 mph 1010.6mb 43f 41f
3:54 10 24 mph 1010.7mb 43f 42f
3:48 13 20 mph 1010.7mb 43f 42f
3:42 13 22 mph 1010.6mb 43f 41f
3:36 10 16 mph 1010.6mb 43f 41f
3:30 14 21 mph 1010.5mb 43f 42f
3:24 14 17 mph 1010.5mb 43f 42f
3:18 11 22 mph 1010.4mb 43f 42f
3:12 11 21 mph 1010.3mb 43f 42f
3:06 13 21 mph 1010.2mb 43f 41f
3:00 18 24 mph 1010.1mb 43f 42f
2:54 20 25 mph 1010.1mb 43f 42f
2:48 15 28 mph 1010.2mb 43f 42f
2:42 18 28 mph 1010.2mb 43f 42f
2:36 16 26 mph 1010mb 43f 42f
2:30 15 22 mph 1009.9mb 43f 42f
2:24 14 22 mph 1009.9mb 43f 42f
2:12 17 28 mph 1009.8mb 43f 42f
2:06 16 23 mph 1009.6mb 43f 42f
2:00 13 28 mph 1009.6mb 43f 42f
1:54 16 23 mph 1009.4mb 43f 42f
1:48 20 29 mph 1009.4mb 43f 42f
1:42 18 24 mph 1009.2mb 43f 42f
1:36 16 26 mph 1009mb 43f 42f
1:30 15 24 mph 1008.8mb 43f 42f
1:24 14 26 mph 1008.6mb 43f 42f
1:18 15 30 mph 1008.3mb 43f 42f
1:12 18 24 mph 1008.2mb 44f 42f
1:06 16 28 mph 1008.1mb 44f 42f
1:00 17 32 mph 1008mb 43f 42f
12:54 23 31 mph 1007.9mb 44f 43f
12:48 21 32 mph 1007.9mb 43f 43f
12:42 18 23 mph 1007.8mb 44f 43f
12:36 17 26 mph 1007.7mb 44f 43f
12:30 16 24 mph 1007.6mb 44f 43f
12:18 17 23 mph 1007.5mb 44f 43f
12:12 14 24 mph 1007.3mb 44f 44f
12:06 15 22 mph 1007.1mb 44f 44f
12:00 14 21 mph 1007mb 44f 44f
jeu. 12/25 11:54 14 21 mph 1006.9mb 44f 44f
11:48 14 24 mph 1006.9mb 44f 44f
11:42 18 23 mph 1006.8mb 44f 44f
11:36 15 23 mph 1006.7mb 44f 44f
11:30 14 22 mph 1006.7mb 44f 44f
11:24 15 23 mph 1006.6mb 44f 44f
11:12 16 25 mph 1006.3mb 44f 44f
11:06 17 26 mph 1006.2mb 44f 44f
11:00 18 26 mph 1006.1mb 44f 45f
10:48 16 21 mph 1006mb 44f 45f
10:42 17 23 mph 1005.9mb 44f 45f
10:36 17 26 mph 1005.9mb 44f 45f
10:30 16 25 mph 1005.8mb 44f 45f
10:24 16 24 mph 1005.7mb 44f 45f
10:18 15 31 mph 1005.7mb 44f 45f
10:12 16 28 mph 1005.7mb 44f 45f
10:06 17 26 mph 1005.6mb 44f 45f
10:00 17 26 mph 1005.7mb 44f 45f
9:54 17 24 mph 1005.7mb 44f 45f
9:48 17 24 mph 1005.6mb 44f 45f
9:42 13 25 mph 1005.5mb 44f 45f
9:36 16 28 mph 1005.4mb 44f 45f
9:30 13 20 mph 1005.2mb 44f 45f
9:24 14 18 mph 1004.9mb 44f 45f
9:18 11 22 mph 1004.8mb 44f 46f
9:12 13 21 mph 1004.7mb 44f 46f
9:06 16 23 mph 1004.6mb 44f 46f
9:00 17 24 mph 1004.5mb 44f 46f
8:54 16 23 mph 1004.3mb 44f 46f
8:48 15 23 mph 1004.2mb 44f 46f
8:42 14 25 mph 1004.1mb 44f 46f
8:36 17 24 mph 1004mb 44f 46f
8:30 14 23 mph 1004mb 44f 46f
8:24 13 21 mph 1003.9mb 44f 46f
8:18 14 23 mph 1003.9mb 44f 46f
8:12 13 26 mph 1003.9mb 44f 46f
8:06 16 28 mph 1003.9mb 44f 47f
8:00 16 24 mph 1003.7mb 44f 47f
7:54 18 24 mph 1003.5mb 44f 47f
7:48 14 29 mph 1003.5mb 44f 47f
7:42 17 23 mph 1003.2mb 44f 47f
7:36 16 21 mph 1003.2mb 44f 47f
7:30 18 26 mph 1003mb 44f 47f
7:24 14 26 mph 1002.9mb 44f 47f
7:18 20 29 mph 1002.8mb 44f 48f
7:12 18 29 mph 1002.6mb 44f 48f
7:06 16 24 mph 1002.5mb 44f 47f
7:00 16 25 mph 1002.3mb 44f 47f
6:54 18 29 mph 1002.1mb 44f 48f
6:48 17 31 mph 1002.1mb 44f 47f
6:30 17 29 mph 1001.5mb 44f 47f
6:24 18 32 mph 1001.4mb 44f 48f
6:18 16 25 mph 1001.3mb 44f 48f
6:12 14 23 mph 1001.2mb 44f 47f
6:06 18 25 mph 1001.1mb 44f 48f
5:48 17 25 mph 1000.6mb 44f 47f
5:42 13 22 mph 1000.4mb 44f 47f
5:36 18 24 mph 1000.3mb 44f 47f
5:30 14 24 mph 1000.3mb 44f 47f
5:24 15 23 mph 1000.3mb 44f 48f
5:12 10 20 mph 1000.3mb 44f 47f
5:06 13 16 mph 1000mb 44f 47f
5:00 13 21 mph 1000mb 44f 48f
4:54 13 20 mph 1000.1mb 44f 48f
4:48 11 17 mph 1000mb 44f 48f
4:42 13 21 mph 999.7mb 44f 48f
4:36 11 21 mph 999.6mb 44f 48f
4:30 15 21 mph 999.5mb 44f 48f
4:24 11 17 mph 999.5mb 44f 48f
4:18 10 16 mph 999.5mb 44f 48f
4:12 11 17 mph 999.3mb 44f 48f
4:00 8 17 mph 999.1mb 44f 49f
3:54 14 20 mph 999mb 44f 49f
3:48 13 21 mph 998.8mb 44f 49f
3:42 13 17 mph 998.6mb 44f 49f
3:36 13 18 mph 998.5mb 44f 49f
3:30 10 24 mph 998.3mb 44f 49f
3:24 14 20 mph 998.1mb 44f 49f
3:18 15 26 mph 998mb 44f 50f
3:12 15 22 mph 997.9mb 44f 50f
3:06 15 23 mph 997.9mb 44f 50f
3:00 14 20 mph 997.6mb 44f 50f
2:54 15 25 mph 997.5mb 44f 50f
2:48 14 23 mph 997.4mb 44f 50f
2:42 15 22 mph 997.2mb 44f 51f
2:36 16 24 mph 997mb 44f 51f
2:30 15 24 mph 996.9mb 44f 51f
2:24 16 22 mph 996.7mb 44f 51f
2:18 11 23 mph 996.7mb 44f 51f
2:06 15 22 mph 996.4mb 44f 51f
2:00 15 21 mph 996.3mb 44f 51f
1:54 13 18 mph 995.9mb 44f 51f
1:48 11 20 mph 995.8mb 44f 51f
1:42 14 21 mph 995.5mb 44f 51f
1:36 11 16 mph 995.4mb 44f 51f
1:30 15 22 mph 995.5mb 44f 51f
1:24 13 20 mph 995.5mb 44f 51f
1:18 11 16 mph 995.4mb 44f 50f
1:12 13 22 mph 995.1mb 44f 51f
1:06 13 20 mph 995.3mb 44f 51f
1:00 11 20 mph 995.3mb 44f 51f
12:54 13 21 mph 995.1mb 44f 51f
12:48 11 21 mph 994.9mb 44f 51f
12:42 15 22 mph 994.9mb 44f 52f
12:36 10 17 mph 994.8mb 44f 52f
12:30 10 15 mph 994.7mb 44f 53f
12:24 8 20 mph 995mb 44f 53f
12:18 13 25 mph 995mb 44f 53f
12:12 8 20 mph 995mb 44f 53f
12:06 8 20 mph 995.1mb 44f 53f
12:00 10 22 mph 995.1mb 44f 53f
11:54 9 16 mph 995.3mb 44f 54f
11:48 15 22 mph 995.1mb 44f 54f
11:42 14 18 mph 994.9mb 44f 55f
11:36 13 21 mph 994.7mb 44f 55f
11:30 14 22 mph 994.5mb 44f 55f
11:24 16 23 mph 994.6mb 44f 55f
11:18 15 28 mph 994.7mb 44f 56f
11:12 14 25 mph 994.9mb 44f 56f
11:06 11 24 mph 994.9mb 44f 56f
11:00 14 23 mph 994.9mb 44f 57f
10:54 17 29 mph 995mb 44f 57f
10:48 16 26 mph 995mb 44f 58f
10:42 16 28 mph 995.4mb 44f 58f
10:36 18 31 mph 995.6mb 44f 59f
10:30 17 25 mph 995.5mb 44f 59f
10:24 15 24 mph 995.3mb 44f 58f
10:18 14 28 mph 995.3mb 44f 58f
10:12 16 28 mph 995.4mb 44f 58f
10:06 14 28 mph 995.8mb 44f 58f
10:00 20 29 mph 995.9mb 44f 59f
9:54 20 32 mph 996.2mb 44f 59f
9:48 17 30 mph 996.5mb 44f 59f
9:42 17 31 mph 996.8mb 44f 59f
9:36 16 28 mph 996.5mb 44f 58f
9:30 20 29 mph 996.4mb 44f 58f
9:24 13 26 mph 996.8mb 44f 58f
9:18 16 31 mph 996.6mb 44f 59f
9:12 16 25 mph 995.8mb 44f 60f
9:06 16 31 mph 995.2mb 44f 60f
9:00 15 24 mph 995.8mb 44f 59f
8:54 16 26 mph 995.8mb 44f 59f
8:48 14 24 mph 996mb 44f 59f
8:42 16 24 mph 996.1mb 44f 59f
8:36 16 28 mph 996.4mb 44f 58f
8:30 13 25 mph 996.6mb 44f 58f
8:24 15 36 mph 996.8mb 44f 58f
8:18 15 30 mph 997mb 44f 58f
8:12 13 29 mph 996.6mb 44f 58f
8:06 11 29 mph 996.7mb 44f 58f
8:00 16 28 mph 996.1mb 44f 58f
7:54 14 29 mph 996.4mb 44f 58f
7:48 10 26 mph 996mb 44f 57f
7:42 14 25 mph 996.3mb 44f 57f
7:36 13 26 mph 996.5mb 44f 57f
7:30 11 24 mph 996.3mb 44f 56f
7:24 15 25 mph 996.4mb 44f 57f
7:18 11 20 mph 996.8mb 44f 56f
7:12 13 26 mph 996.5mb 44f 56f
7:06 10 21 mph 997mb 44f 56f
7:00 10 20 mph 997.4mb 44f 56f
6:54 10 21 mph 997.1mb 44f 56f
6:48 14 23 mph 997.4mb 44f 56f
6:42 9 17 mph 997.5mb 44f 56f
6:36 8 21 mph 997.6mb 44f 56f
6:30 10 23 mph 997.5mb 44f 57f
6:24 13 24 mph 997.7mb 44f 57f
6:18 10 17 mph 997.8mb 44f 56f
6:12 9 15 mph 997.8mb 44f 57f
6:06 10 17 mph 997.9mb 44f 57f
6:00 9 20 mph 998.1mb 44f 56f
5:54 10 17 mph 998.1mb 44f 57f
5:48 9 15 mph 997.8mb 44f 57f
5:42 8 16 mph 998mb 44f 58f
5:36 7 15 mph 998.1mb 44f 58f
5:30 6 13 mph 998.1mb 44f 58f
5:24 8 20 mph 998.1mb 44f 59f
5:18 6 14 mph 998.5mb 44f 59f
5:06 7 11 mph 998.4mb 44f 58f
5:00 8 15 mph 998.6mb 44f 58f
4:54 8 20 mph 998.8mb 44f 58f
4:48 10 16 mph 998.9mb 44f 58f
4:42 10 18 mph 999mb 44f 58f
4:36 9 15 mph 998.8mb 44f 58f
4:30 9 18 mph 998.7mb 44f 58f
4:24 9 22 mph 998.8mb 44f 58f
4:18 14 20 mph 998.8mb 44f 58f
4:12 9 22 mph 998.7mb 44f 58f
4:06 8 17 mph 998.6mb 44f 58f
4:00 10 18 mph 998.4mb 44f 58f
3:54 11 24 mph 998.6mb 44f 58f
3:48 11 28 mph 998.9mb 44f 58f
3:42 10 23 mph 998.8mb 44f 59f
3:36 9 31 mph 998.8mb 44f 59f
3:30 10 22 mph 998.7mb 44f 59f
3:24 15 26 mph 998.8mb 44f 59f
3:18 17 30 mph 998.9mb 44f 60f
3:12 17 29 mph 999.1mb 44f 59f
3:06 17 37 mph 999.1mb 44f 59f
3:00 13 29 mph 999mb 44f 59f
2:48 14 25 mph 998.4mb 44f 59f
2:42 20 29 mph 998.6mb 44f 59f
2:36 17 31 mph 998.8mb 44f 58f
2:24 13 23 mph 999.4mb 44f 58f
2:12 11 26 mph 999.8mb 44f 58f
2:06 13 29 mph 1000mb 44f 58f
2:00 15 28 mph 1000mb 44f 58f
1:54 20 34 mph 1000.1mb 44f 59f
1:48 11 32 mph 1000.2mb 44f 58f
1:36 17 32 mph 1000.2mb 44f 59f
1:30 14 37 mph 1000.3mb 44f 59f
1:24 14 25 mph 1000.4mb 44f 59f
1:18 11 28 mph 1000.3mb 44f 58f
1:12 13 26 mph 1000.8mb 44f 58f
1:06 16 25 mph 1000.9mb 44f 58f
1:00 14 25 mph 1001.1mb 44f 58f
12:54 13 29 mph 1001.3mb 44f 58f
12:48 13 23 mph 1001.3mb 44f 58f
12:42 13 22 mph 1001.4mb 43f 57f
12:36 15 28 mph 1001.5mb 43f 58f
12:30 17 29 mph 1001.7mb 43f 58f
12:24 14 26 mph 1001.8mb 43f 58f
12:18 13 22 mph 1001.9mb 43f 58f
12:12 14 25 mph 1001.7mb 44f 59f
12:06 15 25 mph 1001.9mb 43f 58f
12:00 14 24 mph 1002.1mb 43f 58f
mer. 12/24 11:54 11 21 mph 1002.3mb 43f 58f
11:48 10 20 mph 1002.1mb 43f 58f
11:42 14 22 mph 1002.5mb 43f 58f
11:36 11 22 mph 1002.6mb 43f 58f
11:30 6 17 mph 1002.5mb 43f 58f
11:24 13 26 mph 1002.7mb 43f 58f
11:18 13 25 mph 1003mb 43f 58f
11:12 10 22 mph 1003mb 43f 58f
11:06 14 21 mph 1003.4mb 43f 59f
11:00 11 24 mph 1003.4mb 43f 58f
10:54 13 25 mph 1003.4mb 44f 58f
10:48 10 20 mph 1003.6mb 44f 58f
10:42 10 25 mph 1003.8mb 44f 57f
10:36 11 20 mph 1003.9mb 44f 57f
10:30 11 24 mph 1004mb 44f 57f
10:24 9 21 mph 1004.2mb 44f 56f
10:18 8 16 mph 1004.2mb 43f 55f
10:12 10 17 mph 1004.2mb 43f 54f
10:06 10 22 mph 1004.4mb 43f 53f
10:00 9 16 mph 1004.6mb 43f 53f
9:48 13 18 mph 1004.7mb 43f 53f
9:36 11 15 mph 1005.1mb 43f 52f
9:30 11 21 mph 1005.3mb 43f 52f
9:24 11 23 mph 1005.4mb 43f 52f
9:18 11 18 mph 1005.6mb 43f 52f
9:12 10 17 mph 1005.8mb 43f 52f
9:06 8 11 mph 1006.1mb 43f 52f
9:00 8 13 mph 1006.3mb 43f -
8:54 7 11 mph 1006.6mb 43f -
8:36 7 13 mph 1007mb 43f 51f
8:30 6 9 mph 1007.3mb 43f 50f
8:24 6 9 mph 1007.7mb 43f 50f
8:18 3 7 mph 1007.9mb 43f 50f
8:12 5 9 mph 1008mb 43f 50f
8:06 6 8 mph 1008.2mb 43f 49f
8:00 9 14 mph 1008.3mb 43f 47f
7:54 10 13 mph 1008.5mb 43f 47f
7:42 8 11 mph 1008.9mb 43f 47f
7:36 9 10 mph 1009.2mb 43f 47f
7:30 8 9 mph 1009.3mb 43f 46f
7:18 5 7 mph 1009.7mb 43f 47f
7:12 2 6 mph 1009.8mb 43f 47f
7:06 5 8 mph 1010mb 43f 47f
7:00 6 7 mph 1009.9mb 43f 47f
6:54 5 7 mph 1010mb 43f 47f
6:48 5 10 mph 1010.1mb 43f 47f
6:36 6 9 mph 1010.4mb 43f 46f
6:30 6 9 mph 1010.5mb 43f 46f
6:24 5 8 mph 1010.6mb 43f 46f
6:18 7 10 mph 1010.7mb - 46f
5:54 6 8 mph 1011.2mb 43f 45f
5:42 7 10 mph 1011.3mb 43f 45f
5:36 7 9 mph 1011.4mb 43f 45f
5:30 6 9 mph 1011.5mb 43f 45f
5:24 6 9 mph 1011.6mb 43f 45f
5:18 6 8 mph 1011.7mb 43f 44f
5:06 7 10 mph 1011.9mb 43f 44f
5:00 8 10 mph 1012mb 43f 44f
4:54 8 10 mph 1012.2mb 43f 44f
4:48 8 10 mph 1012.3mb 43f 44f
4:42 8 11 mph 1012.5mb 43f 44f
4:36 6 11 mph 1012.7mb 43f 44f
4:30 7 11 mph 1012.8mb 43f 44f
4:24 7 10 mph 1013mb 43f 44f
4:06 9 10 mph 1013.3mb 43f 44f
4:00 7 10 mph 1013.4mb 43f 44f
3:54 7 10 mph 1013.5mb 43f 44f
3:48 8 11 mph 1013.6mb 43f 44f
3:42 9 14 mph 1013.7mb 43f 44f
3:36 10 13 mph 1013.7mb 43f 44f
3:30 9 11 mph 1013.8mb 43f 44f
3:24 9 11 mph 1013.8mb 43f 44f
3:18 8 10 mph 1014mb 43f 44f
3:12 9 11 mph 1014.1mb 43f 44f
3:06 9 13 mph 1014.1mb 43f 44f
3:00 11 14 mph 1014.1mb 43f 44f
2:54 11 15 mph 1014.2mb 43f 44f
2:48 11 14 mph 1014.3mb 43f 44f
2:36 10 14 mph 1014.6mb 43f 44f
2:30 10 14 mph 1014.8mb 43f 44f
2:24 13 14 mph 1014.9mb 43f 44f
2:18 11 14 mph 1015mb 43f 44f
2:12 13 15 mph 1014.9mb 43f 44f
2:06 11 15 mph 1015mb 43f 43f
2:00 13 15 mph 1015.1mb 43f 43f
1:54 13 15 mph 1015.3mb 43f 43f
1:48 14 16 mph 1015.5mb 43f 43f
1:42 13 15 mph 1015.5mb 43f 43f
1:36 14 16 mph 1015.6mb 43f 43f
1:30 14 16 mph 1015.7mb 43f 43f
1:24 14 16 mph 1015.9mb 43f 43f
1:18 14 16 mph 1016.1mb 43f 43f
1:12 14 16 mph 1016.1mb 43f 43f
1:06 13 15 mph 1016.1mb 43f 43f
12:54 14 16 mph 1016.4mb 43f 43f
12:48 14 16 mph 1016.4mb 43f 43f
12:42 15 18 mph 1016.4mb 43f 43f
12:36 15 17 mph 1016.5mb 43f 43f
12:30 14 18 mph 1016.7mb 43f 43f
12:24 14 18 mph 1016.7mb 43f 43f
12:18 15 17 mph 1016.6mb 43f 43f
12:12 15 18 mph 1017.1mb 43f 43f
12:06 15 18 mph 1017.3mb 43f 43f
12:00 14 17 mph 1017.2mb 43f 43f
11:54 15 18 mph 1017.2mb 43f 43f
11:48 14 16 mph 1017.4mb 43f 43f
11:42 15 20 mph 1017.4mb 43f 43f
11:36 15 18 mph 1017.6mb 43f 43f
11:30 14 17 mph 1017.9mb 43f 43f
11:24 16 20 mph 1018mb 43f 43f
11:18 14 20 mph 1018.1mb 43f 43f
11:12 15 18 mph 1018mb 43f 42f
11:06 16 20 mph 1018mb 43f 42f
11:00 16 18 mph 1018.2mb 43f 42f
10:54 15 20 mph 1018.3mb 43f 42f
10:48 15 20 mph 1018.5mb 43f 42f
10:42 15 18 mph 1018.5mb 43f 42f
10:36 17 20 mph 1018.6mb 43f 42f
10:30 16 20 mph 1018.9mb 43f 42f
10:24 10 11 mph 1019mb 43f 41f
10:18 9 11 mph 1019.3mb 43f 40f
10:12 9 10 mph 1019.4mb 43f 40f
10:06 9 10 mph 1019.4mb 43f 40f
10:00 9 10 mph 1019.5mb 43f 40f
9:54 9 10 mph 1019.6mb 43f 40f
9:48 9
mph
1019.8mb 43f 40f
9:42 9 10 mph 1020mb 43f 40f
9:36 9 10 mph 1020.2mb 43f 40f
9:30 9 10 mph 1020.3mb 43f 39f
9:24 8 9 mph 1020.5mb 43f 39f
9:18 9 10 mph 1020.6mb 43f 39f
9:12 9 11 mph 1020.6mb 43f 39f
9:06 10 11 mph 1020.5mb 43f 38f
9:00 10 13 mph 1020.5mb 43f 38f
8:54 11
mph
1020.4mb 43f 38f
8:48 10 11 mph 1020.7mb 43f 38f
8:42 10 13 mph 1020.9mb 43f 38f
8:36 10 11 mph 1021.1mb 43f 38f
8:30 9 10 mph 1021.3mb 43f 38f
8:24 9 10 mph 1021.4mb 43f 38f
8:18 9 11 mph 1021.4mb 43f 38f
8:12 10 11 mph 1021.4mb 43f 38f
8:00 10 13 mph 1021.3mb 43f 38f
7:54 11 13 mph 1021.4mb 43f 38f
7:48 10 11 mph 1021.6mb 43f 38f